• Join FlightAware (Why Join?)
  • Login
  • US Flag 
11:59AM EST


 

Airport Tracker/Info


-or-


 

Live Flight TrackerFlight Track Log ✈ N35246 ✈ 09-May-2014 ✈ KSRQ - KPMP

Flight Track Log - Related Links

Times and Time Zones

All times are in EDT time to prevent confusion due to time zone crossing. See the N35246 flight status page for this flight to view local times or setup timezone preferences in your user account.

Time Position Orientation Groundspeed Altitude Reporting Facility
EDT Latitude Longitude Course Direction KTS MPH feet Rate Location/Type
10:15PM 27.4000 -82.5667 360° North 79 91 300  Level Tampa TRACON
10:16PM 27.4167 -82.5667 333° Northwest 84 97 700 360 Climbing Tampa TRACON
10:16PM 27.4333 -82.5667 360° North 84 97 1,000 360 Climbing Tampa TRACON
10:18PM 27.4667 -82.5667 360° North 79 91 1,500 360 Climbing Tampa TRACON
10:19PM 27.4833 -82.5833 318° Northwest 86 99 1,800 300 Climbing Tampa TRACON
10:20PM 27.5000 -82.5667 42° Northeast 79 91 2,200 420 Climbing Tampa TRACON
10:21PM 27.5167 -82.5500 42° Northeast 72 83 2,700 360 Climbing Tampa TRACON
10:22PM 27.5333 -82.5333 42° Northeast 69 79 3,000 300 Climbing Tampa TRACON
10:23PM 27.5333 -82.5167 90° East 65 75 3,300 300 Climbing Tampa TRACON
10:23PM 27.5500 -82.5000 42° Northeast 69 79 3,600 300 Climbing Tampa TRACON
10:24PM 27.5667 -82.4833 42° Northeast 74 85 3,900 300 Climbing Tampa TRACON
10:25PM 27.5833 -82.4667 42° Northeast 71 82 4,300 300 Climbing Tampa TRACON
10:27PM 27.6000 -82.4500 42° Northeast 74 85 4,600 240 Climbing Tampa TRACON
10:28PM 27.6167 -82.4333 42° Northeast 77 89 4,900 240 Climbing Tampa TRACON
10:29PM 27.6167 -82.4167 90° East 75 86 5,100 60 Climbing Tampa TRACON
10:30PM 27.6500 -82.4000 24° Northeast 96 110 5,100  Level Tampa TRACON
10:30PM 27.6667 -82.3667 61° Northeast 112 129 5,100  Level Tampa TRACON
10:31PM 27.6833 -82.3500 42° Northeast 108 124 5,100 -60 Level Tampa TRACON
10:33PM 27.7000 -82.3167 61° Northeast 105 121 5,000 -60 Descending Tampa TRACON
10:34PM 27.7167 -82.3000 42° Northeast 104 120 5,000  Level Tampa TRACON
10:34PM 27.7500 -82.2833 24° Northeast 106 122 5,000  Level Tampa TRACON
10:35PM 27.7667 -82.2500 61° Northeast 107 123 5,000  Level Tampa TRACON
10:36PM 27.7833 -82.2333 41° Northeast 106 122 5,100  Climbing Tampa TRACON
10:37PM 27.8167 -82.2167 24° Northeast 106 122 5,000 -60 Descending Tampa TRACON
10:38PM 27.8333 -82.1833 61° Northeast 110 127 5,000  Level Tampa TRACON
10:40PM 27.8500 -82.1667 41° Northeast 108 124 5,000  Level Tampa TRACON
10:41PM 27.8833 -82.1333 41° Northeast 107 123 5,100  Climbing Tampa TRACON
10:41PM 27.9000 -82.1167 41° Northeast 107 123 5,000  Descending Tampa TRACON
10:42PM 27.9167 -82.0833 60° Northeast 110 127 5,100  Climbing Tampa TRACON
10:44PM 27.9500 -82.0500 41° Northeast 111 128 5,100  Level Orlando TRACON
10:45PM 27.9833 -82.0333 24° Northeast 112 129 5,100  Level Orlando TRACON
10:46PM 28.0000 -82.0000 60° Northeast 108 124 5,100 -60 Level Orlando TRACON
10:47PM 28.0100 -81.9725 68° East 108 124 5,000 -60 Descending Miami Center
10:48PM 28.0186 -81.9439 71° East 102 117 5,000  Level Miami Center
10:49PM 28.0456 -81.9247 32° Northeast 111 128 5,000  Level Miami Center
10:50PM 28.0778 -81.9139 17° North 119 137 5,000  Level Miami Center
10:51PM 28.1039 -81.8967 30° Northeast 114 131 5,000  Level Miami Center
10:52PM 28.1297 -81.8767 34° Northeast 111 128 5,000 -60 Level Miami Center
10:53PM 28.1500 -81.8667 23° Northeast 113 130 4,900 -300 Descending Orlando TRACON
10:54PM 28.1833 -81.8333 41° Northeast 124 143 4,500 -540 Descending Orlando TRACON
10:55PM 28.2000 -81.8167 41° Northeast 130 150 3,800 -660 Descending Orlando TRACON
10:56PM 28.2333 -81.7833 41° Northeast 124 143 3,200 -420 Descending Orlando TRACON
10:57PM 28.2667 -81.7667 24° Northeast 117 135 3,000 -60 Descending Orlando TRACON
10:58PM 28.2833 -81.7500 41° Northeast 113 130 3,100  Climbing Orlando TRACON
10:59PM 28.3167 -81.7167 41° Northeast 108 124 3,100  Level Orlando TRACON
11:00PM 28.3333 -81.7000 41° Northeast 116 133 3,100  Level Orlando TRACON
11:01PM 28.3667 -81.6833 24° Northeast 116 133 3,100  Level Orlando TRACON
11:02PM 28.3833 -81.6667 41° Northeast 112 129 3,100  Level Orlando TRACON
11:03PM 28.4167 -81.6500 24° Northeast 113 130 3,100 -240 Level Orlando TRACON
11:04PM 28.4333 -81.6167 60° Northeast 121 139 2,700 -480 Descending Orlando TRACON
11:05PM 28.4500 -81.5833 60° Northeast 113 130 2,100 -360 Descending Orlando TRACON
11:06PM 28.4667 -81.5500 60° Northeast 103 119 2,000  Descending Orlando TRACON
11:07PM 28.4667 -81.5167 90° East 88 101 2,100  Climbing Orlando TRACON
11:08PM 28.4833 -81.5000 41° Northeast 89 102 2,000 -60 Descending Orlando TRACON
11:09PM 28.4833 -81.4667 90° East 93 107 2,000 -60 Level Orlando TRACON
11:10PM 28.5000 -81.4500 41° Northeast 93 107 1,900 -240 Descending Orlando TRACON
11:11PM 28.5167 -81.4167 60° Northeast 91 105 1,600 -420 Descending Orlando TRACON
11:12PM 28.5167 -81.4000 90° East 81 93 1,200 -420 Descending Orlando TRACON
11:13PM 28.5333 -81.3667 60° Northeast 76 87 800 -420 Descending Orlando TRACON
11:14PM 28.5333 -81.3500 90° East 78 90 400 -180 Descending Orlando TRACON
11:16PM 28.5500 -81.3167 60° Northeast 75 86 400 120 Level Orlando TRACON
11:17PM 28.5667 -81.3000 41° Northeast 71 82 900 420 Climbing Orlando TRACON
11:18PM 28.5833 -81.2833 41° Northeast 75 86 1,200 360 Climbing Orlando TRACON
11:19PM 28.5833 -81.2667 90° East 64 74 1,600 360 Climbing Orlando TRACON
11:20PM 28.5667 -81.2500 139° Southeast 62 71 2,000 360 Climbing Orlando TRACON
11:21PM 28.5667 -81.2333 90° East 67 77 2,400 360 Climbing Orlando TRACON
11:22PM 28.5500 -81.2167 139° Southeast 68 78 2,800 300 Climbing Orlando TRACON
11:23PM 28.5333 -81.2000 139° Southeast 69 79 3,000 120 Climbing Orlando TRACON
11:24PM 28.5167 -81.1833 139° Southeast 88 101 3,100  Climbing Orlando TRACON
11:25PM 28.5000 -81.1667 139° Southeast 93 107 3,000 -60 Descending Orlando TRACON
11:26PM 28.4833 -81.1500 139° Southeast 85 98 3,000  Level Orlando TRACON
11:27PM 28.4667 -81.1333 139° Southeast 84 97 3,100  Climbing Orlando TRACON
11:28PM 28.4500 -81.1167 139° Southeast 80 92 3,100  Level Orlando TRACON
11:29PM 28.4333 -81.1000 139° Southeast 81 93 3,100  Level Orlando TRACON
11:30PM 28.4167 -81.0833 139° Southeast 86 99 3,100  Level Orlando TRACON
11:31PM 28.4000 -81.0667 139° Southeast 82 94 3,100  Level Orlando TRACON
11:32PM 28.3833 -81.0500 139° Southeast 86 99 3,100 -60 Level Orlando TRACON
11:33PM 28.3667 -81.0333 139° Southeast 82 94 3,000  Descending Orlando TRACON
11:34PM 28.3500 -81.0167 139° Southeast 83 96 3,100  Climbing Orlando TRACON
11:35PM 28.3167 -81.0000 156° South 80 92 3,000 -60 Descending Orlando TRACON
11:36PM 28.3000 -80.9833 139° Southeast 79 91 3,000  Level Orlando TRACON
11:37PM 28.2833 -80.9667 139° Southeast 78 90 3,100  Climbing Orlando TRACON
11:38PM 28.2667 -80.9500 139° Southeast 80 92 3,000 -60 Descending Orlando TRACON
11:39PM 28.2500 -80.9500 180° South 81 93 3,000  Level Orlando TRACON
11:40PM 28.2333 -80.9333 139° Southeast 79 91 3,000  Level Orlando TRACON
11:41PM 28.2167 -80.9167 139° Southeast 76 87 3,100  Climbing Orlando TRACON
11:42PM 28.2000 -80.9000 139° Southeast 80 92 3,000 -120 Descending Orlando TRACON
11:43PM 28.1833 -80.8833 139° Southeast 85 98 2,900 -300 Descending Orlando TRACON
11:44PM 28.1500 -80.8833 180° South 95 109 2,400 -540 Descending Orlando TRACON
11:45PM 28.1333 -80.8667 139° Southeast 97 112 1,900 -360 Descending Orlando TRACON
11:46PM 28.1167 -80.8500 139° Southeast 88 101 1,700 -120 Descending Orlando TRACON
11:47PM 28.1000 -80.8167 120° Southeast 81 93 1,700  Level Orlando TRACON
11:48PM 28.1000 -80.8000 90° East 87 100 1,700  Level Orlando TRACON
11:49PM 28.1000 -80.7667 90° East 81 93 1,700 -180 Level Orlando TRACON
11:50PM 28.1000 -80.7500 90° East 83 96 1,400 -420 Descending Orlando TRACON
11:51PM 28.1000 -80.7167 90° East 77 89 900 -420 Descending Orlando TRACON
11:52PM 28.1000 -80.7000 90° East 74 85 600 -180 Descending Orlando TRACON
11:53PM 28.1000 -80.6667 90° East 77 89 600 240 Level Orlando TRACON
11:54PM 28.1000 -80.6500 90° East 74 85 1,100 360 Climbing Orlando TRACON
11:55PM 28.1000 -80.6167 90° East 79 91 1,400 300 Climbing Orlando TRACON
11:56PM 28.1000 -80.6000 90° East 85 98 1,700 300 Climbing Orlando TRACON
11:56PM 28.1056 -80.5831 70° East 80 92 1,900 240 Climbing Miami Center
11:57PM 28.0856 -80.5803 173° South 77 89 2,200 360 Climbing Miami Center
11:58PM 28.0633 -80.5839 188° South 77 89 2,700 420 Climbing Miami Center
11:59PM 28.0461 -80.5853 184° South 70 81 3,100 360 Climbing Miami Center
12:00AM 28.0281 -80.5892 191° South 66 76 3,500 300 Climbing Miami Center
12:02AM 28.0117 -80.5903 183° South 65 75 3,800 240 Climbing Miami Center
12:02AM 27.9928 -80.5936 189° South 63 72 4,100 120 Climbing Miami Center
12:03AM 27.9683 -80.5983 190° South 83 96 4,100  Level Miami Center
12:05AM 27.9444 -80.6022 188° South 90 104 4,100  Level Miami Center
12:06AM 27.9172 -80.6058 187° South 93 107 4,100 120 Level Miami Center
12:07AM 27.8950 -80.6081 185° South 87 100 4,400 300 Climbing Miami Center
12:08AM 27.8786 -80.5997 156° South 73 84 4,800 300 Climbing Miami Center
12:09AM 27.8589 -80.5961 171° South 70 81 5,100 300 Climbing Miami Center
12:10AM 27.8386 -80.5933 173° South 71 82 5,400 240 Climbing Miami Center
12:11AM 27.8197 -80.5922 177° South 71 82 5,600 240 Climbing Miami Center
12:12AM 27.8003 -80.5903 175° South 70 81 5,900 240 Climbing Miami Center
12:13AM 27.7808 -80.5875 173° South 70 81 6,100 60 Climbing Miami Center
12:14AM 27.7561 -80.5858 177° South 85 98 6,100  Level Miami Center
12:15AM 27.7308 -80.5825 173° South 89 102 6,100  Level Miami Center
12:16AM 27.7056 -80.5786 172° South 89 102 6,100  Level Miami Center
12:17AM 27.6836 -80.5717 164° South 88 101 6,100  Level Miami Center
12:18AM 27.6586 -80.5656 168° South 88 101 6,100  Level Miami Center
12:19AM 27.6361 -80.5578 163° South 88 101 6,100  Level Miami Center
12:20AM 27.6119 -80.5494 163° South 88 101 6,100  Level Miami Center
12:21AM 27.5869 -80.5408 163° South 88 101 6,100  Level Miami Center
12:22AM 27.5628 -80.5353 168° South 89 102 6,100 -60 Level Miami Center
12:23AM 27.5375 -80.5278 165° South 89 102 6,000 -60 Descending Miami Center
12:24AM 27.5139 -80.5233 171° South 89 102 6,000  Level Miami Center
12:25AM 27.4894 -80.5133 160° South 89 102 6,100  Climbing Miami Center
12:26AM 27.4669 -80.5053 162° South 89 102 6,100 -60 Level Miami Center
12:27AM 27.4417 -80.4983 166° South 89 102 6,000  Descending Miami Center
12:28AM 27.4197 -80.4886 159° South 89 102 6,100  Climbing Miami Center
12:29AM 27.3958 -80.4794 161° South 89 102 6,100  Level Miami Center
12:30AM 27.3728 -80.4739 168° South 88 101 6,100  Level Miami Center
12:31AM 27.3472 -80.4669 166° South 89 102 6,100 -60 Level Miami Center
12:32AM 27.3250 -80.4608 166° South 88 101 6,000 -60 Descending Miami Center
12:33AM 27.3017 -80.4511 160° South 87 100 6,000  Level Miami Center
12:34AM 27.2789 -80.4447 166° South 87 100 6,000  Level Miami Center
12:35AM 27.2547 -80.4383 167° South 85 98 6,000 -240 Level Miami Center
12:36AM 27.2286 -80.4333 170° South 97 112 5,600 -480 Descending Miami Center
12:37AM 27.1992 -80.4253 166° South 101 116 5,100 -540 Descending Miami Center
12:38AM 27.1736 -80.4142 159° South 102 117 4,600 -540 Descending Miami Center
12:39AM 27.1456 -80.4031 161° South 102 117 4,100 -300 Descending Miami Center
12:40AM 27.1222 -80.3958 165° South 96 110 4,000 -60 Descending Miami Center
12:41AM 27.0989 -80.3894 166° South 86 99 4,000  Level Miami Center
12:42AM 27.0789 -80.3817 161° South 83 96 4,000  Level Miami Center
12:43AM 27.0556 -80.3744 165° South 82 94 4,000  Level Miami Center
12:44AM 27.0347 -80.3678 164° South 82 94 4,000  Level Miami Center
12:45AM 27.0125 -80.3594 162° South 82 94 4,000 -60 Level Miami Center
12:46AM 26.9922 -80.3506 159° South 81 93 3,900 -300 Descending Miami Center
12:47AM 26.9650 -80.3436 167° South 91 105 3,500 -420 Descending Miami Center
12:48AM 26.9386 -80.3358 165° South 97 112 3,100 -300 Descending Miami Center
12:49AM 26.9119 -80.3283 166° South 96 110 3,000 -60 Descending Miami Center
12:50AM 26.8908 -80.3183 157° South 88 101 3,000  Level Miami Center
12:51AM 26.8664 -80.3108 165° South 87 100 3,000  Level Miami Center
12:52AM 26.8439 -80.3067 171° South 87 100 3,100  Climbing Miami Center
12:53AM 26.8197 -80.2989 164° South 86 99 3,000 -60 Descending Miami Center
12:54AM 26.7978 -80.2889 158° South 87 100 3,000  Level Miami Center
12:55AM 26.7728 -80.2794 161° South 91 105 3,000  Level Miami Center
12:56AM 26.7489 -80.2725 165° South 86 99 3,000  Level Miami Center
12:57AM 26.7247 -80.2647 164° South 88 101 3,000  Level Miami Center
12:58AM 26.7017 -80.2600 170° South 87 100 3,000  Level Miami Center
12:59AM 26.6772 -80.2542 168° South 88 101 3,000  Level Miami Center
01:00AM 26.6525 -80.2444 161° South 91 105 3,000  Level Miami Center
01:01AM 26.6283 -80.2372 165° South 88 101 3,100 60 Climbing Miami Center
01:02AM 26.6122 -80.2325 165° South 89 102 3,100 -120 Level Miami Center
01:02AM 26.6039 -80.2303 167° South 88 101 3,000  Descending Miami Center
01:03AM 26.5856 -80.2236 162° South 90 104 3,100 60 Climbing Miami Center
01:03AM 26.5814 -80.2217 157° South 87 100 3,100  Level Miami Center
01:04AM 26.5589 -80.2144 164° South 96 110 3,100  Level Miami Center
01:05AM 26.5356 -80.2175 187° South 95 109 3,100  Level Miami Center
01:05AM 26.5314 -80.2200 208° Southwest 94 108 3,100  Level Miami Center
01:06AM 26.5103 -80.2225 186° South 93 107 3,100  Level Miami Center
01:06AM 26.5056 -80.2244 200° South 94 108 3,100 -120 Level Miami Center
01:07AM 26.4889 -80.2256 183° South 91 105 3,000 -120 Descending Miami Center
01:07AM 26.4800 -80.2281 194° South 91 105 3,000  Level Miami Center
01:08AM 26.4633 -80.2350 200° South 95 109 3,000  Level Miami Center
01:08AM 26.4556 -80.2397 209° Southwest 93 107 3,000  Level Miami Center
01:09AM 26.4392 -80.2519 214° Southwest 104 120 3,000  Level Miami Center
01:09AM 26.4325 -80.2569 214° Southwest 102 117 3,000 60 Level Miami Center
01:09AM 26.4181 -80.2550 173° South 80 92 3,100 -120 Climbing Miami Center
01:10AM 26.4100 -80.2461 135° Southeast 78 90 2,900 -300 Descending Miami Center
01:11AM 26.3981 -80.2394 153° Southeast 85 98 2,800 -300 Descending Miami Center
01:11AM 26.3908 -80.2328 140° Southeast 81 93 2,600 -360 Descending Miami Center
01:11AM 26.3822 -80.2264 146° Southeast 71 82 2,500 -240 Descending Miami Center
01:12AM 26.3750 -80.2183 135° Southeast 77 89 2,400 -240 Descending Miami Center
01:12AM 26.3703 -80.2139 140° Southeast 72 83 2,300 -240 Descending Miami Center
01:13AM 26.3622 -80.2075 145° Southeast 76 87 2,200 -180 Descending Miami Center